sensor_id;sensor_type;location;lat;lon;timestamp;P1;durP1;ratioP1;P2;durP2;ratioP2
16624;SDS011;8426;48.496;9.098;2023-06-14T00:01:11;8.00;;;2.15;;
16624;SDS011;8426;48.496;9.098;2023-06-14T00:06:18;4.07;;;2.58;;
16624;SDS011;8426;48.496;9.098;2023-06-14T00:11:23;4.55;;;2.33;;
16624;SDS011;8426;48.496;9.098;2023-06-14T00:16:28;5.15;;;2.60;;
16624;SDS011;8426;48.496;9.098;2023-06-14T00:21:31;5.72;;;2.65;;
16624;SDS011;8426;48.496;9.098;2023-06-14T00:26:40;4.57;;;2.58;;
16624;SDS011;8426;48.496;9.098;2023-06-14T00:31:44;3.75;;;2.38;;
16624;SDS011;8426;48.496;9.098;2023-06-14T00:36:47;8.43;;;2.70;;
16624;SDS011;8426;48.496;9.098;2023-06-14T00:41:54;5.07;;;2.10;;
16624;SDS011;8426;48.496;9.098;2023-06-14T00:47:00;3.75;;;2.45;;
16624;SDS011;8426;48.496;9.098;2023-06-14T00:52:07;8.73;;;2.67;;
16624;SDS011;8426;48.496;9.098;2023-06-14T00:57:15;11.32;;;2.75;;
16624;SDS011;8426;48.496;9.098;2023-06-14T01:02:19;5.70;;;2.90;;
16624;SDS011;8426;48.496;9.098;2023-06-14T01:07:25;4.13;;;2.33;;
16624;SDS011;8426;48.496;9.098;2023-06-14T01:12:39;8.18;;;2.60;;
16624;SDS011;8426;48.496;9.098;2023-06-14T01:17:52;8.98;;;2.88;;
16624;SDS011;8426;48.496;9.098;2023-06-14T01:23:08;3.67;;;2.28;;
16624;SDS011;8426;48.496;9.098;2023-06-14T01:28:15;4.35;;;2.63;;
16624;SDS011;8426;48.496;9.098;2023-06-14T01:33:21;4.43;;;2.83;;
16624;SDS011;8426;48.496;9.098;2023-06-14T01:38:27;4.72;;;2.80;;
16624;SDS011;8426;48.496;9.098;2023-06-14T01:43:35;4.70;;;2.40;;
16624;SDS011;8426;48.496;9.098;2023-06-14T01:48:40;5.40;;;2.25;;
16624;SDS011;8426;48.496;9.098;2023-06-14T01:53:47;5.28;;;2.95;;
16624;SDS011;8426;48.496;9.098;2023-06-14T01:58:53;4.40;;;2.70;;
16624;SDS011;8426;48.496;9.098;2023-06-14T02:03:57;6.82;;;2.80;;
16624;SDS011;8426;48.496;9.098;2023-06-14T02:09:03;5.18;;;2.92;;
16624;SDS011;8426;48.496;9.098;2023-06-14T02:14:07;4.13;;;2.95;;
16624;SDS011;8426;48.496;9.098;2023-06-14T02:19:12;3.95;;;2.60;;
16624;SDS011;8426;48.496;9.098;2023-06-14T02:24:18;8.13;;;2.58;;
16624;SDS011;8426;48.496;9.098;2023-06-14T02:29:22;4.75;;;2.70;;
16624;SDS011;8426;48.496;9.098;2023-06-14T02:34:25;4.35;;;2.50;;
16624;SDS011;8426;48.496;9.098;2023-06-14T02:39:30;7.10;;;2.65;;
16624;SDS011;8426;48.496;9.098;2023-06-14T02:44:34;4.38;;;2.75;;
16624;SDS011;8426;48.496;9.098;2023-06-14T02:49:38;4.38;;;2.53;;
16624;SDS011;8426;48.496;9.098;2023-06-14T02:54:44;11.35;;;2.80;;
16624;SDS011;8426;48.496;9.098;2023-06-14T02:59:52;4.38;;;2.88;;
16624;SDS011;8426;48.496;9.098;2023-06-14T03:04:55;4.85;;;3.00;;
16624;SDS011;8426;48.496;9.098;2023-06-14T03:10:04;4.60;;;2.85;;
16624;SDS011;8426;48.496;9.098;2023-06-14T03:15:09;10.73;;;3.58;;
16624;SDS011;8426;48.496;9.098;2023-06-14T03:20:14;5.22;;;2.70;;
16624;SDS011;8426;48.496;9.098;2023-06-14T03:25:20;5.47;;;2.75;;
16624;SDS011;8426;48.496;9.098;2023-06-14T03:30:24;4.50;;;2.65;;
16624;SDS011;8426;48.496;9.098;2023-06-14T03:35:28;4.80;;;2.85;;
16624;SDS011;8426;48.496;9.098;2023-06-14T03:40:33;4.28;;;2.85;;
16624;SDS011;8426;48.496;9.098;2023-06-14T03:45:36;4.60;;;2.63;;
16624;SDS011;8426;48.496;9.098;2023-06-14T03:50:40;5.30;;;2.65;;
16624;SDS011;8426;48.496;9.098;2023-06-14T03:55:45;5.55;;;2.97;;
16624;SDS011;8426;48.496;9.098;2023-06-14T04:00:53;6.70;;;3.13;;
16624;SDS011;8426;48.496;9.098;2023-06-14T04:05:57;6.47;;;2.90;;
16624;SDS011;8426;48.496;9.098;2023-06-14T04:11:03;8.23;;;3.40;;
16624;SDS011;8426;48.496;9.098;2023-06-14T04:16:06;5.60;;;2.97;;
16624;SDS011;8426;48.496;9.098;2023-06-14T04:21:10;6.57;;;2.80;;
16624;SDS011;8426;48.496;9.098;2023-06-14T04:26:15;4.03;;;2.22;;
16624;SDS011;8426;48.496;9.098;2023-06-14T04:31:19;5.32;;;2.95;;
16624;SDS011;8426;48.496;9.098;2023-06-14T04:36:23;3.85;;;2.60;;
16624;SDS011;8426;48.496;9.098;2023-06-14T04:41:28;3.92;;;2.30;;
16624;SDS011;8426;48.496;9.098;2023-06-14T04:46:32;4.18;;;2.60;;
16624;SDS011;8426;48.496;9.098;2023-06-14T04:51:48;5.22;;;2.35;;
16624;SDS011;8426;48.496;9.098;2023-06-14T04:57:02;3.55;;;2.25;;
16624;SDS011;8426;48.496;9.098;2023-06-14T05:02:07;6.20;;;2.65;;
16624;SDS011;8426;48.496;9.098;2023-06-14T05:07:10;4.13;;;2.20;;
16624;SDS011;8426;48.496;9.098;2023-06-14T05:12:18;5.47;;;2.60;;
16624;SDS011;8426;48.496;9.098;2023-06-14T05:17:22;5.72;;;2.50;;
16624;SDS011;8426;48.496;9.098;2023-06-14T05:22:25;5.63;;;2.45;;
16624;SDS011;8426;48.496;9.098;2023-06-14T05:27:30;5.93;;;2.63;;
16624;SDS011;8426;48.496;9.098;2023-06-14T05:32:36;4.03;;;2.45;;
16624;SDS011;8426;48.496;9.098;2023-06-14T05:37:39;4.72;;;2.80;;
16624;SDS011;8426;48.496;9.098;2023-06-14T05:42:45;4.78;;;2.47;;
16624;SDS011;8426;48.496;9.098;2023-06-14T05:47:48;9.80;;;2.40;;
16624;SDS011;8426;48.496;9.098;2023-06-14T05:52:52;8.25;;;3.33;;
16624;SDS011;8426;48.496;9.098;2023-06-14T05:57:57;5.95;;;3.80;;
16624;SDS011;8426;48.496;9.098;2023-06-14T06:03:01;6.03;;;3.97;;
16624;SDS011;8426;48.496;9.098;2023-06-14T06:08:04;7.50;;;3.40;;
16624;SDS011;8426;48.496;9.098;2023-06-14T06:13:09;5.22;;;3.38;;
16624;SDS011;8426;48.496;9.098;2023-06-14T06:18:13;4.20;;;3.20;;
16624;SDS011;8426;48.496;9.098;2023-06-14T06:23:16;5.43;;;3.83;;
16624;SDS011;8426;48.496;9.098;2023-06-14T06:28:21;5.97;;;3.95;;
16624;SDS011;8426;48.496;9.098;2023-06-14T06:33:24;8.77;;;3.85;;
16624;SDS011;8426;48.496;9.098;2023-06-14T06:38:28;9.48;;;3.92;;
16624;SDS011;8426;48.496;9.098;2023-06-14T06:43:32;8.25;;;3.67;;
16624;SDS011;8426;48.496;9.098;2023-06-14T06:48:36;9.45;;;3.80;;
16624;SDS011;8426;48.496;9.098;2023-06-14T06:53:41;11.48;;;4.05;;
16624;SDS011;8426;48.496;9.098;2023-06-14T06:58:50;5.22;;;3.50;;
16624;SDS011;8426;48.496;9.098;2023-06-14T07:03:54;4.25;;;2.97;;
16624;SDS011;8426;48.496;9.098;2023-06-14T07:08:57;8.82;;;3.40;;
16624;SDS011;8426;48.496;9.098;2023-06-14T07:14:04;8.65;;;3.33;;
16624;SDS011;8426;48.496;9.098;2023-06-14T07:19:08;9.95;;;3.40;;
16624;SDS011;8426;48.496;9.098;2023-06-14T07:24:11;6.18;;;3.13;;
16624;SDS011;8426;48.496;9.098;2023-06-14T07:29:16;9.13;;;3.70;;
16624;SDS011;8426;48.496;9.098;2023-06-14T07:34:20;6.10;;;3.22;;
16624;SDS011;8426;48.496;9.098;2023-06-14T07:39:23;11.15;;;3.63;;
16624;SDS011;8426;48.496;9.098;2023-06-14T07:44:29;10.48;;;3.78;;
16624;SDS011;8426;48.496;9.098;2023-06-14T07:49:57;4.40;;;3.28;;
16624;SDS011;8426;48.496;9.098;2023-06-14T07:55:01;10.43;;;3.25;;
16624;SDS011;8426;48.496;9.098;2023-06-14T08:00:07;13.38;;;3.65;;
16624;SDS011;8426;48.496;9.098;2023-06-14T08:05:12;4.05;;;3.22;;
16624;SDS011;8426;48.496;9.098;2023-06-14T08:10:16;5.93;;;3.42;;
16624;SDS011;8426;48.496;9.098;2023-06-14T08:15:21;6.10;;;3.40;;
16624;SDS011;8426;48.496;9.098;2023-06-14T08:20:25;6.40;;;4.18;;
16624;SDS011;8426;48.496;9.098;2023-06-14T08:25:28;8.18;;;3.40;;
16624;SDS011;8426;48.496;9.098;2023-06-14T08:30:33;6.35;;;3.70;;
16624;SDS011;8426;48.496;9.098;2023-06-14T08:35:36;6.03;;;3.10;;
16624;SDS011;8426;48.496;9.098;2023-06-14T08:40:41;11.10;;;2.92;;
16624;SDS011;8426;48.496;9.098;2023-06-14T08:45:46;9.68;;;3.20;;
16624;SDS011;8426;48.496;9.098;2023-06-14T08:50:54;4.57;;;2.58;;
16624;SDS011;8426;48.496;9.098;2023-06-14T08:56:04;7.85;;;2.95;;
16624;SDS011;8426;48.496;9.098;2023-06-14T09:01:10;6.47;;;2.85;;
16624;SDS011;8426;48.496;9.098;2023-06-14T09:06:16;4.25;;;3.05;;
16624;SDS011;8426;48.496;9.098;2023-06-14T09:11:20;8.52;;;3.35;;
16624;SDS011;8426;48.496;9.098;2023-06-14T09:16:25;7.68;;;3.13;;
16624;SDS011;8426;48.496;9.098;2023-06-14T09:21:28;6.18;;;3.50;;
16624;SDS011;8426;48.496;9.098;2023-06-14T09:26:37;3.95;;;3.00;;
16624;SDS011;8426;48.496;9.098;2023-06-14T09:31:45;5.50;;;3.25;;
16624;SDS011;8426;48.496;9.098;2023-06-14T09:36:49;7.13;;;2.92;;
16624;SDS011;8426;48.496;9.098;2023-06-14T09:41:53;8.73;;;3.25;;
16624;SDS011;8426;48.496;9.098;2023-06-14T09:46:58;11.88;;;4.15;;
16624;SDS011;8426;48.496;9.098;2023-06-14T09:52:01;6.05;;;3.22;;
16624;SDS011;8426;48.496;9.098;2023-06-14T09:57:06;6.85;;;3.10;;
16624;SDS011;8426;48.496;9.098;2023-06-14T10:02:14;5.25;;;3.30;;
16624;SDS011;8426;48.496;9.098;2023-06-14T10:07:24;10.18;;;3.20;;
16624;SDS011;8426;48.496;9.098;2023-06-14T10:12:31;7.20;;;3.63;;
16624;SDS011;8426;48.496;9.098;2023-06-14T10:17:38;11.40;;;3.28;;
16624;SDS011;8426;48.496;9.098;2023-06-14T10:22:47;5.38;;;3.10;;
16624;SDS011;8426;48.496;9.098;2023-06-14T10:28:01;4.68;;;3.28;;
16624;SDS011;8426;48.496;9.098;2023-06-14T10:33:07;8.25;;;3.95;;
16624;SDS011;8426;48.496;9.098;2023-06-14T10:38:12;8.55;;;3.42;;
16624;SDS011;8426;48.496;9.098;2023-06-14T10:43:21;9.95;;;3.25;;
16624;SDS011;8426;48.496;9.098;2023-06-14T10:48:30;4.85;;;2.95;;
16624;SDS011;8426;48.496;9.098;2023-06-14T10:53:39;5.78;;;3.35;;
16624;SDS011;8426;48.496;9.098;2023-06-14T10:58:43;8.48;;;3.63;;
16624;SDS011;8426;48.496;9.098;2023-06-14T11:03:51;8.25;;;3.05;;
16624;SDS011;8426;48.496;9.098;2023-06-14T11:14:33;7.13;;;2.90;;
16624;SDS011;8426;48.496;9.098;2023-06-14T11:19:38;6.97;;;3.10;;
16624;SDS011;8426;48.496;9.098;2023-06-14T11:24:42;4.47;;;3.30;;
16624;SDS011;8426;48.496;9.098;2023-06-14T11:29:50;8.60;;;3.17;;
16624;SDS011;8426;48.496;9.098;2023-06-14T11:34:55;6.93;;;2.90;;
16624;SDS011;8426;48.496;9.098;2023-06-14T11:40:00;6.88;;;3.13;;
16624;SDS011;8426;48.496;9.098;2023-06-14T11:45:07;6.85;;;2.90;;
16624;SDS011;8426;48.496;9.098;2023-06-14T11:50:13;4.50;;;3.30;;
16624;SDS011;8426;48.496;9.098;2023-06-14T11:55:17;6.97;;;3.35;;
16624;SDS011;8426;48.496;9.098;2023-06-14T12:00:23;5.30;;;3.55;;
16624;SDS011;8426;48.496;9.098;2023-06-14T12:05:32;7.00;;;3.40;;
16624;SDS011;8426;48.496;9.098;2023-06-14T12:10:39;4.85;;;3.40;;
16624;SDS011;8426;48.496;9.098;2023-06-14T12:15:45;12.45;;;3.28;;
16624;SDS011;8426;48.496;9.098;2023-06-14T12:20:59;5.90;;;3.13;;
16624;SDS011;8426;48.496;9.098;2023-06-14T12:26:04;5.30;;;3.58;;
16624;SDS011;8426;48.496;9.098;2023-06-14T12:31:12;4.70;;;2.97;;
16624;SDS011;8426;48.496;9.098;2023-06-14T12:36:21;10.00;;;2.95;;
16624;SDS011;8426;48.496;9.098;2023-06-14T12:41:25;5.88;;;3.50;;
16624;SDS011;8426;48.496;9.098;2023-06-14T12:46:30;4.95;;;3.10;;
16624;SDS011;8426;48.496;9.098;2023-06-14T12:51:35;8.00;;;3.25;;
16624;SDS011;8426;48.496;9.098;2023-06-14T12:56:38;5.57;;;3.47;;
16624;SDS011;8426;48.496;9.098;2023-06-14T13:01:43;7.18;;;3.45;;
16624;SDS011;8426;48.496;9.098;2023-06-14T13:06:50;5.53;;;3.90;;
16624;SDS011;8426;48.496;9.098;2023-06-14T13:11:57;6.00;;;3.63;;
16624;SDS011;8426;48.496;9.098;2023-06-14T13:17:00;4.72;;;3.53;;
16624;SDS011;8426;48.496;9.098;2023-06-14T13:22:07;7.88;;;4.07;;
16624;SDS011;8426;48.496;9.098;2023-06-14T13:27:11;5.30;;;3.70;;
16624;SDS011;8426;48.496;9.098;2023-06-14T13:32:15;4.57;;;3.45;;
16624;SDS011;8426;48.496;9.098;2023-06-14T13:37:20;5.45;;;3.40;;
16624;SDS011;8426;48.496;9.098;2023-06-14T13:42:26;4.90;;;3.67;;
16624;SDS011;8426;48.496;9.098;2023-06-14T13:47:35;4.70;;;3.65;;
16624;SDS011;8426;48.496;9.098;2023-06-14T13:52:40;7.47;;;3.65;;
16624;SDS011;8426;48.496;9.098;2023-06-14T13:57:45;7.93;;;3.85;;
16624;SDS011;8426;48.496;9.098;2023-06-14T14:02:48;5.53;;;3.55;;
16624;SDS011;8426;48.496;9.098;2023-06-14T14:07:56;5.90;;;4.00;;
16624;SDS011;8426;48.496;9.098;2023-06-14T14:13:23;7.03;;;3.53;;
16624;SDS011;8426;48.496;9.098;2023-06-14T14:18:27;8.30;;;3.33;;
16624;SDS011;8426;48.496;9.098;2023-06-14T14:23:36;4.63;;;3.65;;
16624;SDS011;8426;48.496;9.098;2023-06-14T14:28:42;3.75;;;3.10;;
16624;SDS011;8426;48.496;9.098;2023-06-14T14:33:46;5.63;;;3.33;;
16624;SDS011;8426;48.496;9.098;2023-06-14T14:38:54;4.55;;;3.50;;
16624;SDS011;8426;48.496;9.098;2023-06-14T14:43:59;9.60;;;3.72;;
16624;SDS011;8426;48.496;9.098;2023-06-14T14:49:04;12.50;;;3.35;;
16624;SDS011;8426;48.496;9.098;2023-06-14T14:54:09;10.90;;;3.38;;
16624;SDS011;8426;48.496;9.098;2023-06-14T14:59:12;10.77;;;4.90;;
16624;SDS011;8426;48.496;9.098;2023-06-14T15:04:18;8.40;;;3.70;;
16624;SDS011;8426;48.496;9.098;2023-06-14T15:09:46;14.68;;;8.10;;
16624;SDS011;8426;48.496;9.098;2023-06-14T15:14:55;7.57;;;4.60;;
16624;SDS011;8426;48.496;9.098;2023-06-14T15:20:00;5.60;;;3.55;;
16624;SDS011;8426;48.496;9.098;2023-06-14T15:25:08;7.13;;;3.83;;
16624;SDS011;8426;48.496;9.098;2023-06-14T15:30:12;5.57;;;3.50;;
16624;SDS011;8426;48.496;9.098;2023-06-14T15:35:18;6.63;;;3.63;;
16624;SDS011;8426;48.496;9.098;2023-06-14T15:40:24;15.65;;;4.00;;
16624;SDS011;8426;48.496;9.098;2023-06-14T15:45:29;11.60;;;3.30;;
16624;SDS011;8426;48.496;9.098;2023-06-14T15:50:33;15.73;;;3.33;;
16624;SDS011;8426;48.496;9.098;2023-06-14T15:55:42;5.38;;;3.50;;
16624;SDS011;8426;48.496;9.098;2023-06-14T16:00:46;3.53;;;2.78;;
16624;SDS011;8426;48.496;9.098;2023-06-14T16:05:51;8.32;;;3.13;;
16624;SDS011;8426;48.496;9.098;2023-06-14T16:10:57;4.82;;;3.25;;
16624;SDS011;8426;48.496;9.098;2023-06-14T16:16:01;6.47;;;3.03;;
16624;SDS011;8426;48.496;9.098;2023-06-14T16:21:05;8.27;;;3.42;;
16624;SDS011;8426;48.496;9.098;2023-06-14T16:26:18;5.88;;;3.00;;
16624;SDS011;8426;48.496;9.098;2023-06-14T16:31:22;4.22;;;3.00;;
16624;SDS011;8426;48.496;9.098;2023-06-14T16:36:29;3.90;;;3.10;;
16624;SDS011;8426;48.496;9.098;2023-06-14T16:41:35;8.02;;;3.10;;
16624;SDS011;8426;48.496;9.098;2023-06-14T16:46:39;7.53;;;3.10;;
16624;SDS011;8426;48.496;9.098;2023-06-14T16:51:42;4.82;;;2.80;;
16624;SDS011;8426;48.496;9.098;2023-06-14T16:56:47;16.60;;;3.47;;
16624;SDS011;8426;48.496;9.098;2023-06-14T17:01:59;5.40;;;3.08;;
16624;SDS011;8426;48.496;9.098;2023-06-14T17:07:06;13.95;;;3.10;;
16624;SDS011;8426;48.496;9.098;2023-06-14T17:12:15;6.15;;;2.90;;
16624;SDS011;8426;48.496;9.098;2023-06-14T17:17:20;11.40;;;3.10;;
16624;SDS011;8426;48.496;9.098;2023-06-14T17:22:24;4.82;;;2.70;;
16624;SDS011;8426;48.496;9.098;2023-06-14T17:27:29;4.85;;;3.00;;
16624;SDS011;8426;48.496;9.098;2023-06-14T17:32:35;6.25;;;3.33;;
16624;SDS011;8426;48.496;9.098;2023-06-14T17:37:39;9.32;;;2.55;;
16624;SDS011;8426;48.496;9.098;2023-06-14T17:42:44;3.83;;;2.72;;
16624;SDS011;8426;48.496;9.098;2023-06-14T17:47:47;4.53;;;2.67;;
16624;SDS011;8426;48.496;9.098;2023-06-14T17:52:53;4.28;;;2.58;;
16624;SDS011;8426;48.496;9.098;2023-06-14T17:58:04;6.20;;;2.60;;
16624;SDS011;8426;48.496;9.098;2023-06-14T18:03:11;5.90;;;2.70;;
16624;SDS011;8426;48.496;9.098;2023-06-14T18:08:14;3.63;;;2.25;;
16624;SDS011;8426;48.496;9.098;2023-06-14T18:13:21;7.57;;;2.67;;
16624;SDS011;8426;48.496;9.098;2023-06-14T18:18:24;3.90;;;2.40;;
16624;SDS011;8426;48.496;9.098;2023-06-14T18:23:30;9.40;;;2.78;;
16624;SDS011;8426;48.496;9.098;2023-06-14T18:28:35;3.72;;;2.17;;
16624;SDS011;8426;48.496;9.098;2023-06-14T18:33:40;7.28;;;2.72;;
16624;SDS011;8426;48.496;9.098;2023-06-14T18:38:44;9.60;;;2.88;;
16624;SDS011;8426;48.496;9.098;2023-06-14T18:43:49;6.80;;;2.03;;
16624;SDS011;8426;48.496;9.098;2023-06-14T18:48:52;5.18;;;2.10;;
16624;SDS011;8426;48.496;9.098;2023-06-14T18:53:57;3.55;;;2.22;;
16624;SDS011;8426;48.496;9.098;2023-06-14T18:59:04;5.45;;;2.22;;
16624;SDS011;8426;48.496;9.098;2023-06-14T19:04:08;6.70;;;2.03;;
16624;SDS011;8426;48.496;9.098;2023-06-14T19:09:12;7.05;;;2.17;;
16624;SDS011;8426;48.496;9.098;2023-06-14T19:14:21;4.80;;;2.20;;
16624;SDS011;8426;48.496;9.098;2023-06-14T19:19:24;5.32;;;1.83;;
16624;SDS011;8426;48.496;9.098;2023-06-14T19:24:29;5.03;;;2.20;;
16624;SDS011;8426;48.496;9.098;2023-06-14T19:29:37;6.28;;;2.00;;
16624;SDS011;8426;48.496;9.098;2023-06-14T19:34:49;4.00;;;2.40;;
16624;SDS011;8426;48.496;9.098;2023-06-14T19:39:52;5.90;;;2.47;;
16624;SDS011;8426;48.496;9.098;2023-06-14T19:44:59;6.75;;;2.25;;
16624;SDS011;8426;48.496;9.098;2023-06-14T19:50:03;15.30;;;2.28;;
16624;SDS011;8426;48.496;9.098;2023-06-14T19:55:08;6.15;;;2.22;;
16624;SDS011;8426;48.496;9.098;2023-06-14T20:00:14;2.80;;;1.92;;
16624;SDS011;8426;48.496;9.098;2023-06-14T20:05:18;5.93;;;2.40;;
16624;SDS011;8426;48.496;9.098;2023-06-14T20:10:23;4.30;;;2.25;;
16624;SDS011;8426;48.496;9.098;2023-06-14T20:15:28;3.90;;;2.00;;
16624;SDS011;8426;48.496;9.098;2023-06-14T20:20:32;6.47;;;2.80;;
16624;SDS011;8426;48.496;9.098;2023-06-14T20:25:36;3.80;;;2.00;;
16624;SDS011;8426;48.496;9.098;2023-06-14T20:30:41;10.32;;;3.22;;
16624;SDS011;8426;48.496;9.098;2023-06-14T20:35:46;3.80;;;1.98;;
16624;SDS011;8426;48.496;9.098;2023-06-14T20:40:49;3.78;;;1.90;;
16624;SDS011;8426;48.496;9.098;2023-06-14T20:45:59;2.40;;;1.73;;
16624;SDS011;8426;48.496;9.098;2023-06-14T20:51:08;2.70;;;2.05;;
16624;SDS011;8426;48.496;9.098;2023-06-14T20:56:15;4.07;;;2.20;;
16624;SDS011;8426;48.496;9.098;2023-06-14T21:01:22;3.47;;;2.30;;
16624;SDS011;8426;48.496;9.098;2023-06-14T21:06:37;5.65;;;1.70;;
16624;SDS011;8426;48.496;9.098;2023-06-14T21:11:42;3.17;;;2.10;;
16624;SDS011;8426;48.496;9.098;2023-06-14T21:16:48;3.60;;;2.20;;
16624;SDS011;8426;48.496;9.098;2023-06-14T21:21:52;3.05;;;2.03;;
16624;SDS011;8426;48.496;9.098;2023-06-14T21:26:56;4.80;;;2.45;;
16624;SDS011;8426;48.496;9.098;2023-06-14T21:32:05;3.35;;;1.90;;
16624;SDS011;8426;48.496;9.098;2023-06-14T21:37:09;2.70;;;1.90;;
16624;SDS011;8426;48.496;9.098;2023-06-14T21:42:12;7.50;;;1.85;;
16624;SDS011;8426;48.496;9.098;2023-06-14T21:47:17;5.32;;;2.35;;
16624;SDS011;8426;48.496;9.098;2023-06-14T21:52:21;6.95;;;2.20;;
16624;SDS011;8426;48.496;9.098;2023-06-14T21:57:26;4.03;;;2.25;;
16624;SDS011;8426;48.496;9.098;2023-06-14T22:02:31;2.85;;;1.95;;
16624;SDS011;8426;48.496;9.098;2023-06-14T22:07:34;10.43;;;2.35;;
16624;SDS011;8426;48.496;9.098;2023-06-14T22:12:38;5.30;;;2.08;;
16624;SDS011;8426;48.496;9.098;2023-06-14T22:17:43;3.08;;;2.30;;
16624;SDS011;8426;48.496;9.098;2023-06-14T22:22:47;3.17;;;2.38;;
16624;SDS011;8426;48.496;9.098;2023-06-14T22:27:51;6.63;;;2.53;;
16624;SDS011;8426;48.496;9.098;2023-06-14T22:32:56;5.75;;;2.17;;
16624;SDS011;8426;48.496;9.098;2023-06-14T22:37:59;5.40;;;2.22;;
16624;SDS011;8426;48.496;9.098;2023-06-14T22:43:04;4.32;;;1.92;;
16624;SDS011;8426;48.496;9.098;2023-06-14T22:48:12;4.75;;;2.65;;
16624;SDS011;8426;48.496;9.098;2023-06-14T22:53:15;7.35;;;2.50;;
16624;SDS011;8426;48.496;9.098;2023-06-14T22:58:20;5.30;;;2.95;;
16624;SDS011;8426;48.496;9.098;2023-06-14T23:03:28;6.45;;;2.20;;
16624;SDS011;8426;48.496;9.098;2023-06-14T23:08:33;9.88;;;2.65;;
16624;SDS011;8426;48.496;9.098;2023-06-14T23:13:37;5.80;;;2.92;;
16624;SDS011;8426;48.496;9.098;2023-06-14T23:18:41;3.30;;;2.20;;
16624;SDS011;8426;48.496;9.098;2023-06-14T23:23:45;3.28;;;2.30;;
16624;SDS011;8426;48.496;9.098;2023-06-14T23:28:53;4.18;;;2.65;;
16624;SDS011;8426;48.496;9.098;2023-06-14T23:34:01;4.70;;;2.75;;
16624;SDS011;8426;48.496;9.098;2023-06-14T23:39:04;4.00;;;2.58;;
16624;SDS011;8426;48.496;9.098;2023-06-14T23:44:08;10.68;;;3.95;;
16624;SDS011;8426;48.496;9.098;2023-06-14T23:49:13;5.88;;;2.88;;
16624;SDS011;8426;48.496;9.098;2023-06-14T23:54:19;4.00;;;2.58;;
16624;SDS011;8426;48.496;9.098;2023-06-14T23:59:22;9.55;;;3.05;;
